createdAt,value
2023-03-20T00:01:14.285Z,34.78
2023-03-20T00:03:42.958Z,35.63
2023-03-20T00:06:18.863Z,37.40
2023-03-20T00:08:48.997Z,32.60
2023-03-20T00:11:33.559Z,36.97
2023-03-20T00:14:04.205Z,34.42
2023-03-20T00:16:34.332Z,36.80
2023-03-20T00:19:03.349Z,36.05
2023-03-20T00:21:33.218Z,34.10
2023-03-20T00:24:02.060Z,34.95
2023-03-20T00:26:34.912Z,34.58
2023-03-20T00:29:05.127Z,37.80
2023-03-20T00:31:36.084Z,36.42
2023-03-20T00:34:06.447Z,37.95
2023-03-20T00:36:36.339Z,38.28
2023-03-20T00:39:04.930Z,37.33
2023-03-20T00:41:38.352Z,38.33
2023-03-20T00:44:19.821Z,38.03
2023-03-20T00:46:50.740Z,40.25
2023-03-20T00:49:19.905Z,36.65
2023-03-20T00:51:49.270Z,38.90
2023-03-20T00:54:19.074Z,38.92
2023-03-20T00:56:52.598Z,37.60
2023-03-20T00:59:25.730Z,37.63
2023-03-20T01:01:54.277Z,38.45
2023-03-20T01:04:23.880Z,39.20
2023-03-20T01:06:53.983Z,40.90
2023-03-20T01:09:22.459Z,40.75
2023-03-20T01:11:52.367Z,40.63
2023-03-20T01:14:21.913Z,41.80
2023-03-20T01:16:50.028Z,40.58
2023-03-20T01:19:18.402Z,40.10
2023-03-20T01:21:47.643Z,40.13
2023-03-20T01:24:17.258Z,41.80
2023-03-20T01:26:46.601Z,41.17
2023-03-20T01:29:19.915Z,44.47
2023-03-20T01:31:48.468Z,42.95
2023-03-20T01:34:17.488Z,39.63
2023-03-20T01:36:49.755Z,42.15
2023-03-20T01:39:21.794Z,40.95
2023-03-20T01:41:52.160Z,40.38
2023-03-20T01:44:22.522Z,42.65
2023-03-20T01:46:55.499Z,41.88
2023-03-20T01:50:19.224Z,42.75
2023-03-20T01:52:51.475Z,42.97
2023-03-20T01:55:22.501Z,44.88
2023-03-20T01:57:59.792Z,45.33
2023-03-20T02:00:28.016Z,43.20
2023-03-20T02:02:57.242Z,47.30
2023-03-20T02:05:46.226Z,44.00
2023-03-20T02:08:20.609Z,46.20
2023-03-20T02:10:50.628Z,43.15
2023-03-20T02:13:27.707Z,43.65
2023-03-20T02:16:07.513Z,46.42
2023-03-20T02:18:58.394Z,46.90
2023-03-20T02:21:59.931Z,46.00
2023-03-20T02:25:02.358Z,45.50
2023-03-20T02:27:45.879Z,43.45
2023-03-20T02:30:56.616Z,42.47
2023-03-20T02:33:51.019Z,43.97
2023-03-20T02:36:59.049Z,41.30
2023-03-20T02:39:47.486Z,42.78
2023-03-20T02:42:25.526Z,42.83
2023-03-20T02:45:04.820Z,44.47
2023-03-20T02:47:42.396Z,46.25
2023-03-20T02:50:27.138Z,45.25
2023-03-20T02:53:08.719Z,44.10
2023-03-20T02:55:42.687Z,46.90
2023-03-20T02:58:15.778Z,45.95
2023-03-20T03:00:52.027Z,43.80
2023-03-20T03:03:25.406Z,44.88
2023-03-20T03:05:59.759Z,44.28
2023-03-20T03:08:33.867Z,42.80
2023-03-20T03:11:07.510Z,43.47
2023-03-20T03:13:40.305Z,41.22
2023-03-20T03:16:12.840Z,41.60
2023-03-20T03:18:43.472Z,44.63
2023-03-20T03:21:14.653Z,42.58
2023-03-20T03:23:47.148Z,41.88
2023-03-20T03:26:22.467Z,39.55
2023-03-20T03:28:55.802Z,41.25
2023-03-20T03:31:24.858Z,41.33
2023-03-20T03:33:56.193Z,38.28
2023-03-20T03:36:38.689Z,40.53
2023-03-20T03:39:19.126Z,40.65
2023-03-20T03:41:53.506Z,41.28
2023-03-20T03:44:27.863Z,40.45
2023-03-20T03:47:00.189Z,38.97
2023-03-20T03:49:34.079Z,41.30
2023-03-20T03:52:06.431Z,40.80
2023-03-20T03:54:40.704Z,42.20
2023-03-20T03:57:34.272Z,43.83
2023-03-20T04:00:07.042Z,40.80
2023-03-20T04:02:48.197Z,39.88
2023-03-20T04:05:19.528Z,42.08
2023-03-20T04:07:48.209Z,39.25
2023-03-20T04:10:18.507Z,39.72
2023-03-20T04:12:48.521Z,38.08
2023-03-20T04:15:17.355Z,41.70
2023-03-20T04:17:45.720Z,40.33
2023-03-20T04:20:16.243Z,40.70
2023-03-20T04:22:45.157Z,40.95
2023-03-20T04:25:18.976Z,41.00
2023-03-20T04:27:48.738Z,39.03
2023-03-20T04:30:25.076Z,40.53
2023-03-20T04:33:12.514Z,38.60
2023-03-20T04:36:13.514Z,40.88
2023-03-20T04:38:42.774Z,38.33
2023-03-20T04:41:11.238Z,38.65
2023-03-20T04:43:41.786Z,38.35
2023-03-20T04:46:09.891Z,34.95
2023-03-20T04:48:39.167Z,37.72
2023-03-20T04:51:07.867Z,43.75
2023-03-20T04:53:46.089Z,40.50
2023-03-20T04:56:14.363Z,42.60
2023-03-20T04:58:44.181Z,40.92
2023-03-20T05:01:12.978Z,38.88
2023-03-20T05:03:41.580Z,36.85
2023-03-20T05:06:10.728Z,35.50
2023-03-20T05:08:44.628Z,33.25
2023-03-20T05:11:13.050Z,32.10
2023-03-20T05:14:01.139Z,28.88
2023-03-20T05:16:50.805Z,28.42
2023-03-20T05:19:26.379Z,28.75
2023-03-20T05:22:12.820Z,28.52
2023-03-20T05:25:01.150Z,28.33
2023-03-20T05:27:48.387Z,27.30
2023-03-20T05:30:38.170Z,27.05
2023-03-20T05:33:32.290Z,27.13
2023-03-20T05:36:19.624Z,25.27
2023-03-20T05:39:16.382Z,25.02
2023-03-20T05:42:03.308Z,26.80
2023-03-20T05:44:45.224Z,25.23
2023-03-20T05:47:26.208Z,24.52
2023-03-20T05:50:05.540Z,24.23
2023-03-20T05:52:51.200Z,24.02
2023-03-20T05:55:45.586Z,21.25
2023-03-20T05:58:35.182Z,22.15
2023-03-20T06:01:22.401Z,21.52
2023-03-20T06:03:54.860Z,23.90
2023-03-20T06:06:42.963Z,25.10
2023-03-20T06:09:11.474Z,24.23
2023-03-20T06:11:39.799Z,23.30
2023-03-20T06:14:08.801Z,20.23
2023-03-20T06:16:40.551Z,22.80
2023-03-20T06:19:11.170Z,21.70
2023-03-20T06:21:39.284Z,22.63
2023-03-20T06:24:11.364Z,23.60
2023-03-20T06:26:39.614Z,24.13
2023-03-20T06:29:11.726Z,21.60
2023-03-20T06:31:40.008Z,20.58
2023-03-20T06:34:13.900Z,18.35
2023-03-20T06:36:47.069Z,17.55
2023-03-20T06:39:20.382Z,17.13
2023-03-20T06:41:49.420Z,17.60
2023-03-20T06:44:17.615Z,17.35
2023-03-20T06:47:11.790Z,16.25
2023-03-20T06:49:44.531Z,15.85
2023-03-20T06:52:17.585Z,16.73
2023-03-20T06:54:52.457Z,15.85
2023-03-20T06:57:20.961Z,17.52
2023-03-20T06:59:49.078Z,14.43
2023-03-20T07:02:18.100Z,14.02
2023-03-20T07:04:48.342Z,15.30
2023-03-20T07:07:17.481Z,15.32
2023-03-20T07:09:46.768Z,13.70
2023-03-20T07:12:20.143Z,12.90
2023-03-20T07:14:48.593Z,12.73
2023-03-20T07:17:20.472Z,13.38
2023-03-20T07:19:51.916Z,13.38
2023-03-20T07:22:23.691Z,13.20
2023-03-20T07:24:53.645Z,12.00
2023-03-20T07:27:25.262Z,13.43
2023-03-20T07:29:56.164Z,11.98
2023-03-20T07:32:25.582Z,10.77
2023-03-20T07:34:55.576Z,12.05
2023-03-20T07:37:23.676Z,12.35
2023-03-20T07:40:04.954Z,10.75
2023-03-20T07:42:44.354Z,9.43
2023-03-20T07:45:17.062Z,10.20
2023-03-20T07:47:48.314Z,10.38
2023-03-20T07:50:18.875Z,10.80
2023-03-20T07:52:49.135Z,9.65
2023-03-20T07:55:18.750Z,10.40
2023-03-20T07:57:49.326Z,10.07
2023-03-20T08:00:18.892Z,8.82
2023-03-20T08:02:47.056Z,9.55
2023-03-20T08:06:07.630Z,8.90
2023-03-20T08:08:38.262Z,8.20
2023-03-20T08:11:07.226Z,8.80
2023-03-20T08:13:35.608Z,7.70
2023-03-20T08:16:03.760Z,8.30
2023-03-20T08:18:31.845Z,7.50
2023-03-20T08:21:00.299Z,8.95
2023-03-20T08:23:28.703Z,7.25
2023-03-20T08:25:58.537Z,7.85
2023-03-20T08:28:40.402Z,8.38
2023-03-20T08:31:12.638Z,7.82
2023-03-20T08:33:41.207Z,7.63
2023-03-20T08:36:10.004Z,7.57
2023-03-20T08:38:38.608Z,8.75
2023-03-20T08:41:09.489Z,7.65
2023-03-20T08:43:37.680Z,6.88
2023-03-20T08:46:08.208Z,7.65
2023-03-20T08:48:37.451Z,6.75
2023-03-20T08:51:06.405Z,7.07
2023-03-20T08:53:34.532Z,6.63
2023-03-20T08:56:03.101Z,6.78
2023-03-20T08:58:33.063Z,7.65
2023-03-20T09:01:05.858Z,8.27
2023-03-20T09:03:34.020Z,7.70
2023-03-20T09:06:02.111Z,7.85
2023-03-20T09:08:30.352Z,8.40
2023-03-20T09:10:58.991Z,7.80
2023-03-20T09:13:28.101Z,7.18
2023-03-20T09:15:58.343Z,6.95
2023-03-20T09:18:27.030Z,8.40
2023-03-20T09:20:56.654Z,9.30
2023-03-20T09:23:25.420Z,7.65
2023-03-20T09:25:53.524Z,9.35
2023-03-20T09:28:21.676Z,8.63
2023-03-20T09:30:49.983Z,8.25
2023-03-20T09:33:19.979Z,9.02
2023-03-20T09:35:48.431Z,9.20
2023-03-20T09:38:16.630Z,8.18
2023-03-20T09:41:04.083Z,8.55
2023-03-20T09:43:48.309Z,9.02
2023-03-20T09:46:30.811Z,8.18
2023-03-20T09:49:08.952Z,7.65
2023-03-20T09:51:43.064Z,7.43
2023-03-20T09:54:21.717Z,6.80
2023-03-20T09:56:51.170Z,6.63
2023-03-20T09:59:21.773Z,6.47
2023-03-20T10:01:53.267Z,6.72
2023-03-20T10:04:26.313Z,5.32
2023-03-20T10:06:54.814Z,6.47
2023-03-20T10:09:25.240Z,5.38
2023-03-20T10:12:10.173Z,5.45
2023-03-20T10:14:50.988Z,6.07
2023-03-20T10:17:33.134Z,7.43
2023-03-20T10:20:13.755Z,6.80
2023-03-20T10:22:46.320Z,6.75
2023-03-20T10:25:24.972Z,7.25
2023-03-20T10:27:59.403Z,6.57
2023-03-20T10:30:47.182Z,7.32
2023-03-20T10:33:27.730Z,7.50
2023-03-20T10:36:11.879Z,7.25
2023-03-20T10:38:47.081Z,7.65
2023-03-20T10:41:19.158Z,7.75
2023-03-20T10:43:50.933Z,8.18
2023-03-20T10:46:23.450Z,8.02
2023-03-20T10:48:58.236Z,8.13
2023-03-20T10:51:39.428Z,8.90
2023-03-20T10:54:14.201Z,8.32
2023-03-20T10:56:48.012Z,9.20
2023-03-20T10:59:23.483Z,9.77
2023-03-20T11:01:52.011Z,10.30
2023-03-20T11:04:20.216Z,9.52
2023-03-20T11:06:59.920Z,9.68
2023-03-20T11:09:30.522Z,10.13
2023-03-20T11:11:59.753Z,10.32
2023-03-20T11:14:34.513Z,10.38
2023-03-20T11:17:04.639Z,11.82
2023-03-20T11:19:35.080Z,10.57
2023-03-20T11:22:10.174Z,11.48
2023-03-20T11:24:42.865Z,12.02
2023-03-20T11:27:14.238Z,11.43
2023-03-20T11:29:45.794Z,11.38
2023-03-20T11:32:27.979Z,11.40
2023-03-20T11:34:57.567Z,10.88
2023-03-20T11:37:29.319Z,10.10
2023-03-20T11:40:08.554Z,10.68
2023-03-20T11:42:37.620Z,10.15
2023-03-20T11:45:16.057Z,11.13
2023-03-20T11:47:45.433Z,10.02
2023-03-20T11:50:28.858Z,9.30
2023-03-20T11:52:59.332Z,9.52
2023-03-20T11:55:30.992Z,9.30
2023-03-20T11:58:01.353Z,8.25
2023-03-20T12:00:36.653Z,7.32
2023-03-20T12:03:05.382Z,8.50
2023-03-20T12:05:35.621Z,6.80
2023-03-20T12:08:14.237Z,6.53
2023-03-20T12:10:44.107Z,7.22
2023-03-20T12:13:18.840Z,8.68
2023-03-20T12:15:52.452Z,8.20
2023-03-20T12:18:28.067Z,8.02
2023-03-20T12:21:05.683Z,9.75
2023-03-20T12:23:38.592Z,8.70
2023-03-20T12:26:12.790Z,8.73
2023-03-20T12:28:48.771Z,10.30
2023-03-20T12:31:24.883Z,9.35
2023-03-20T12:33:59.536Z,10.73
2023-03-20T12:36:32.928Z,10.43
2023-03-20T12:39:04.500Z,11.20
2023-03-20T12:41:41.691Z,11.75
2023-03-20T12:44:22.894Z,11.85
2023-03-20T12:47:00.113Z,10.63
2023-03-20T12:49:40.194Z,10.40
2023-03-20T12:52:16.468Z,11.93
2023-03-20T12:55:10.534Z,13.23
2023-03-20T12:57:47.971Z,11.95
2023-03-20T13:00:25.076Z,13.60
2023-03-20T13:03:04.583Z,13.93
2023-03-20T13:05:42.772Z,14.02
2023-03-20T13:08:24.518Z,11.65
2023-03-20T13:11:00.612Z,14.32
2023-03-20T13:13:35.022Z,13.65
2023-03-20T13:16:17.946Z,14.18
2023-03-20T13:18:59.185Z,14.75
2023-03-20T13:21:37.486Z,14.23
2023-03-20T13:24:24.213Z,14.50
2023-03-20T13:27:03.508Z,14.48
2023-03-20T13:29:43.111Z,14.43
2023-03-20T13:32:21.363Z,13.07
2023-03-20T13:35:05.130Z,13.77
2023-03-20T13:37:36.903Z,11.65
2023-03-20T13:40:12.744Z,12.13
2023-03-20T13:42:49.318Z,12.30
2023-03-20T13:45:31.691Z,12.95
2023-03-20T13:48:04.818Z,12.90
2023-03-20T13:50:43.604Z,12.35
2023-03-20T13:53:23.462Z,11.88
2023-03-20T13:56:01.068Z,11.40
2023-03-20T13:58:47.755Z,12.75
2023-03-20T14:01:23.570Z,13.50
2023-03-20T14:03:53.145Z,13.27
2023-03-20T14:06:46.592Z,12.45
2023-03-20T14:09:33.134Z,10.63
2023-03-20T14:12:05.249Z,12.25
2023-03-20T14:14:43.094Z,11.70
2023-03-20T14:17:17.791Z,10.65
2023-03-20T14:19:47.057Z,12.38
2023-03-20T14:22:20.870Z,10.98
2023-03-20T14:24:56.414Z,13.23
2023-03-20T14:27:45.158Z,12.30
2023-03-20T14:30:41.982Z,12.73
2023-03-20T14:33:26.889Z,11.35
2023-03-20T14:36:18.646Z,11.85
2023-03-20T14:38:57.325Z,11.20
2023-03-20T14:41:31.794Z,12.20
2023-03-20T14:44:12.956Z,11.02
2023-03-20T14:46:52.851Z,10.20
2023-03-20T14:49:37.532Z,10.80
2023-03-20T14:52:24.336Z,11.48
2023-03-20T14:54:56.836Z,12.35
2023-03-20T14:57:37.567Z,12.43
2023-03-20T15:00:23.182Z,13.13
2023-03-20T15:02:54.955Z,12.15
2023-03-20T15:05:29.254Z,11.18
2023-03-20T15:07:59.255Z,11.63
2023-03-20T15:10:27.397Z,11.15
2023-03-20T15:12:58.208Z,10.90
2023-03-20T15:15:30.667Z,12.20
2023-03-20T15:18:08.879Z,12.65
2023-03-20T15:20:37.674Z,15.15
2023-03-20T15:23:06.529Z,14.70
2023-03-20T15:25:39.337Z,12.93
2023-03-20T15:28:08.192Z,14.10
2023-03-20T15:30:39.823Z,12.95
2023-03-20T15:33:17.636Z,13.15
2023-03-20T15:35:45.937Z,13.95
2023-03-20T15:38:17.295Z,15.05
2023-03-20T15:40:50.958Z,15.18
2023-03-20T15:43:22.544Z,14.63
2023-03-20T15:46:03.019Z,15.07
2023-03-20T15:48:40.046Z,13.02
2023-03-20T15:51:11.495Z,12.73
2023-03-20T15:53:44.677Z,11.20
2023-03-20T15:56:18.782Z,12.18
2023-03-20T15:58:50.132Z,10.43
2023-03-20T16:01:20.554Z,13.02
2023-03-20T16:03:52.178Z,13.63
2023-03-20T16:06:22.899Z,12.65
2023-03-20T16:08:59.140Z,14.88
2023-03-20T16:11:38.318Z,14.98
2023-03-20T16:14:07.901Z,14.43
2023-03-20T16:16:37.799Z,15.45
2023-03-20T16:19:09.351Z,16.67
2023-03-20T16:21:41.764Z,18.58
2023-03-20T16:24:16.995Z,19.88
2023-03-20T16:26:49.688Z,21.08
2023-03-20T16:29:19.513Z,21.73
2023-03-20T16:31:56.251Z,19.75
2023-03-20T16:34:32.094Z,18.15
2023-03-20T16:37:03.449Z,19.83
2023-03-20T16:39:32.503Z,17.00
2023-03-20T16:42:13.029Z,15.35
2023-03-20T16:44:43.358Z,14.70
2023-03-20T16:47:20.108Z,15.80
2023-03-20T16:50:12.812Z,14.57
2023-03-20T16:52:43.487Z,15.20
2023-03-20T16:55:17.075Z,13.73
2023-03-20T16:57:49.763Z,14.68
2023-03-20T17:00:24.881Z,12.20
2023-03-20T17:02:59.575Z,13.55
2023-03-20T17:05:43.926Z,15.25
2023-03-20T17:08:15.404Z,14.93
2023-03-20T17:10:51.363Z,14.68
2023-03-20T17:13:19.523Z,15.05
2023-03-20T17:15:47.740Z,13.77
2023-03-20T17:18:16.115Z,15.57
2023-03-20T17:20:45.957Z,15.25
2023-03-20T17:23:17.091Z,15.75
2023-03-20T17:25:45.592Z,15.65
2023-03-20T17:28:20.618Z,15.38
2023-03-20T17:30:50.388Z,14.63
2023-03-20T17:33:21.093Z,14.68
2023-03-20T17:35:52.933Z,15.52
2023-03-20T17:38:23.280Z,14.00
2023-03-20T17:40:53.746Z,14.10
2023-03-20T17:43:22.320Z,14.95
2023-03-20T17:45:50.897Z,14.65
2023-03-20T17:48:21.445Z,13.77
2023-03-20T17:50:52.521Z,12.82
2023-03-20T17:53:25.185Z,11.80
2023-03-20T17:55:54.398Z,13.07
2023-03-20T17:58:24.532Z,14.30
2023-03-20T18:00:54.629Z,13.02
2023-03-20T18:03:23.373Z,14.90
2023-03-20T18:05:54.409Z,13.75
2023-03-20T18:08:23.530Z,13.32
2023-03-20T18:10:53.959Z,11.50
2023-03-20T18:13:23.556Z,12.55
2023-03-20T18:15:54.491Z,12.80
2023-03-20T18:18:24.063Z,15.05
2023-03-20T18:20:55.098Z,12.85
2023-03-20T18:23:23.520Z,14.50
2023-03-20T18:25:51.851Z,14.23
2023-03-20T18:28:23.215Z,15.65
2023-03-20T18:30:52.795Z,14.32
2023-03-20T18:33:25.366Z,17.58
2023-03-20T18:35:55.478Z,15.85
2023-03-20T18:38:25.759Z,15.43
2023-03-20T18:40:54.266Z,15.55
2023-03-20T18:43:22.307Z,16.77
2023-03-20T18:45:50.365Z,15.57
2023-03-20T18:48:18.941Z,17.17
2023-03-20T18:50:51.095Z,16.52
2023-03-20T18:53:21.366Z,13.98
2023-03-20T18:55:49.416Z,14.80
2023-03-20T18:58:22.597Z,16.15
2023-03-20T19:00:53.987Z,16.40
2023-03-20T19:03:24.712Z,18.48
2023-03-20T19:05:53.797Z,17.58
2023-03-20T19:08:23.950Z,14.75
2023-03-20T19:10:53.159Z,18.08
2023-03-20T19:13:23.140Z,15.15
2023-03-20T19:15:51.320Z,14.23
2023-03-20T19:18:21.854Z,17.48
2023-03-20T19:20:52.061Z,14.45
2023-03-20T19:23:21.642Z,14.38
2023-03-20T19:25:55.005Z,14.65
2023-03-20T19:28:37.785Z,11.40
2023-03-20T19:31:09.682Z,13.80
2023-03-20T19:33:39.021Z,12.23
2023-03-20T19:36:19.960Z,12.80
2023-03-20T19:38:48.033Z,12.80
2023-03-20T19:41:19.883Z,12.65
2023-03-20T19:43:52.819Z,13.18
2023-03-20T19:46:42.092Z,12.75
2023-03-20T19:49:19.670Z,12.30
2023-03-20T19:51:48.916Z,13.10
2023-03-20T19:54:17.210Z,12.93
2023-03-20T19:56:46.929Z,14.23
2023-03-20T19:59:16.881Z,14.90
2023-03-20T20:01:46.620Z,14.02
2023-03-20T20:04:15.452Z,12.45
2023-03-20T20:06:47.232Z,11.80
2023-03-20T20:09:16.615Z,13.32
2023-03-20T20:11:46.455Z,11.75
2023-03-20T20:14:15.460Z,12.82
2023-03-20T20:16:45.975Z,11.82
2023-03-20T20:19:14.628Z,12.23
2023-03-20T20:24:31.623Z,12.15
2023-03-20T20:27:16.309Z,11.73
2023-03-20T20:29:49.394Z,12.52
2023-03-20T20:32:18.189Z,11.23
2023-03-20T20:38:25.067Z,11.75
2023-03-20T20:40:28.398Z,11.82
2023-03-20T20:43:01.781Z,11.13
2023-03-20T20:45:32.114Z,8.88
2023-03-20T20:48:01.321Z,9.18
2023-03-20T20:50:31.752Z,9.15
2023-03-20T20:53:00.666Z,10.00
2023-03-20T20:55:28.771Z,9.25
2023-03-20T20:57:58.581Z,9.23
2023-03-20T21:00:45.308Z,9.88
2023-03-20T21:03:16.774Z,9.05
2023-03-20T21:05:44.770Z,10.35
2023-03-20T21:08:14.249Z,10.63
2023-03-20T21:10:42.967Z,8.43
2023-03-20T21:13:12.572Z,9.75
2023-03-20T21:15:41.286Z,8.32
2023-03-20T21:18:10.248Z,10.02
2023-03-20T21:20:38.760Z,9.15
2023-03-20T21:23:07.022Z,9.23
2023-03-20T21:25:40.570Z,9.13
2023-03-20T21:28:11.260Z,10.25
2023-03-20T21:30:54.618Z,9.60
2023-03-20T21:33:31.516Z,8.00
2023-03-20T21:36:00.715Z,12.57
2023-03-20T21:39:01.919Z,9.63
2023-03-20T21:41:18.940Z,10.02
2023-03-20T21:43:47.775Z,8.98
2023-03-20T22:01:14.495Z,9.80
2023-03-20T22:03:33.866Z,10.10
2023-03-20T22:07:05.930Z,9.32
2023-03-20T22:09:45.682Z,10.57
2023-03-20T22:12:30.257Z,10.88
2023-03-20T22:17:53.122Z,11.88
2023-03-20T22:21:06.300Z,9.80
2023-03-20T22:34:54.332Z,12.88
2023-03-20T22:43:17.358Z,11.35
2023-03-20T22:45:52.622Z,9.82
2023-03-20T22:48:28.129Z,11.23
2023-03-20T22:50:56.294Z,10.80
2023-03-20T22:53:25.886Z,11.70
2023-03-20T22:55:54.801Z,10.32
2023-03-20T22:58:23.676Z,11.27
2023-03-20T23:00:55.165Z,10.60
2023-03-20T23:03:42.493Z,12.00
2023-03-20T23:06:30.054Z,10.75
2023-03-20T23:09:05.702Z,10.70
2023-03-20T23:11:41.794Z,10.68
2023-03-20T23:14:20.449Z,10.70
2023-03-20T23:16:51.086Z,10.98
2023-03-20T23:19:20.020Z,10.73
2023-03-20T23:21:48.188Z,10.90
2023-03-20T23:24:18.006Z,10.60
2023-03-20T23:26:46.135Z,10.05
2023-03-20T23:29:14.599Z,11.15
2023-03-20T23:31:42.695Z,11.32
2023-03-20T23:34:10.876Z,10.00
2023-03-20T23:36:38.986Z,10.60
2023-03-20T23:39:08.803Z,10.73
2023-03-20T23:44:28.162Z,12.50
2023-03-20T23:46:56.234Z,10.75
2023-03-20T23:49:25.084Z,12.00
2023-03-20T23:51:53.456Z,11.98
2023-03-20T23:54:22.225Z,13.70
2023-03-20T23:56:51.844Z,12.25
2023-03-20T23:59:21.933Z,13.77
